sensor_id;sensor_type;location;lat;lon;timestamp;pressure;altitude;pressure_sealevel;temperature;humidity
9257;BME280;4665;51.368;6.782;2023-08-08T00:01:38;101217.81;;;14.52;100.00
9257;BME280;4665;51.368;6.782;2023-08-08T00:04:08;101203.25;;;14.39;100.00
9257;BME280;4665;51.368;6.782;2023-08-08T00:06:33;101196.25;;;14.38;100.00
9257;BME280;4665;51.368;6.782;2023-08-08T00:08:59;101195.06;;;14.40;100.00
9257;BME280;4665;51.368;6.782;2023-08-08T00:11:24;101198.59;;;14.32;100.00
9257;BME280;4665;51.368;6.782;2023-08-08T00:13:49;101187.22;;;14.30;100.00
9257;BME280;4665;51.368;6.782;2023-08-08T00:16:15;101185.19;;;14.32;100.00
9257;BME280;4665;51.368;6.782;2023-08-08T00:18:40;101188.03;;;14.31;100.00
9257;BME280;4665;51.368;6.782;2023-08-08T00:21:06;101183.19;;;14.26;100.00
9257;BME280;4665;51.368;6.782;2023-08-08T00:23:31;101191.38;;;14.25;100.00
9257;BME280;4665;51.368;6.782;2023-08-08T00:25:57;101181.00;;;14.22;100.00
9257;BME280;4665;51.368;6.782;2023-08-08T00:28:22;101192.91;;;14.19;100.00
9257;BME280;4665;51.368;6.782;2023-08-08T00:30:48;101185.53;;;14.13;100.00
9257;BME280;4665;51.368;6.782;2023-08-08T00:33:13;101183.88;;;14.12;100.00
9257;BME280;4665;51.368;6.782;2023-08-08T00:35:39;101190.91;;;14.05;100.00
9257;BME280;4665;51.368;6.782;2023-08-08T00:38:04;101198.44;;;14.09;100.00
9257;BME280;4665;51.368;6.782;2023-08-08T00:40:29;101191.06;;;14.03;100.00
9257;BME280;4665;51.368;6.782;2023-08-08T00:42:55;101193.25;;;14.08;100.00
9257;BME280;4665;51.368;6.782;2023-08-08T00:45:20;101196.25;;;14.05;100.00
9257;BME280;4665;51.368;6.782;2023-08-08T00:47:46;101197.94;;;14.06;100.00
9257;BME280;4665;51.368;6.782;2023-08-08T00:50:12;101188.91;;;14.07;100.00
9257;BME280;4665;51.368;6.782;2023-08-08T00:52:40;101174.50;;;14.00;100.00
9257;BME280;4665;51.368;6.782;2023-08-08T00:55:07;101185.91;;;14.02;100.00
9257;BME280;4665;51.368;6.782;2023-08-08T00:57:33;101191.75;;;13.97;100.00
9257;BME280;4665;51.368;6.782;2023-08-08T01:00:00;101184.03;;;14.02;100.00
9257;BME280;4665;51.368;6.782;2023-08-08T01:02:26;101184.69;;;13.96;100.00
9257;BME280;4665;51.368;6.782;2023-08-08T01:04:51;101189.91;;;13.98;100.00
9257;BME280;4665;51.368;6.782;2023-08-08T01:10:17;101191.25;;;14.02;100.00
9257;BME280;4665;51.368;6.782;2023-08-08T01:12:50;101200.28;;;14.01;100.00
9257;BME280;4665;51.368;6.782;2023-08-08T01:15:17;101196.59;;;14.02;100.00
9257;BME280;4665;51.368;6.782;2023-08-08T01:17:44;101179.50;;;13.95;100.00
9257;BME280;4665;51.368;6.782;2023-08-08T01:20:11;101186.22;;;13.99;100.00
9257;BME280;4665;51.368;6.782;2023-08-08T01:25:31;101178.34;;;13.97;100.00
9257;BME280;4665;51.368;6.782;2023-08-08T01:27:58;101186.41;;;13.97;100.00
9257;BME280;4665;51.368;6.782;2023-08-08T01:30:24;101186.22;;;13.91;100.00
9257;BME280;4665;51.368;6.782;2023-08-08T01:32:49;101180.19;;;13.88;100.00
9257;BME280;4665;51.368;6.782;2023-08-08T01:35:15;101181.84;;;13.89;100.00
9257;BME280;4665;51.368;6.782;2023-08-08T01:37:48;101176.81;;;13.95;100.00
9257;BME280;4665;51.368;6.782;2023-08-08T01:40:16;101178.84;;;13.93;100.00
9257;BME280;4665;51.368;6.782;2023-08-08T01:42:47;101168.31;;;13.91;100.00
9257;BME280;4665;51.368;6.782;2023-08-08T01:45:15;101169.47;;;13.88;100.00
9257;BME280;4665;51.368;6.782;2023-08-08T01:47:41;101162.94;;;13.83;100.00
9257;BME280;4665;51.368;6.782;2023-08-08T01:50:07;101153.91;;;13.67;100.00
9257;BME280;4665;51.368;6.782;2023-08-08T01:52:34;101160.25;;;13.66;100.00
9257;BME280;4665;51.368;6.782;2023-08-08T01:55:00;101166.13;;;13.70;100.00
9257;BME280;4665;51.368;6.782;2023-08-08T01:57:25;101163.44;;;13.78;100.00
9257;BME280;4665;51.368;6.782;2023-08-08T01:59:51;101168.47;;;13.81;100.00
9257;BME280;4665;51.368;6.782;2023-08-08T02:02:16;101159.06;;;13.69;100.00
9257;BME280;4665;51.368;6.782;2023-08-08T02:04:43;101155.41;;;13.70;100.00
9257;BME280;4665;51.368;6.782;2023-08-08T02:07:09;101151.72;;;13.71;100.00
9257;BME280;4665;51.368;6.782;2023-08-08T02:09:34;101154.75;;;13.76;100.00
9257;BME280;4665;51.368;6.782;2023-08-08T02:12:00;101153.88;;;13.76;100.00
9257;BME280;4665;51.368;6.782;2023-08-08T02:14:25;101144.34;;;13.73;100.00
9257;BME280;4665;51.368;6.782;2023-08-08T02:16:51;101153.88;;;13.76;100.00
9257;BME280;4665;51.368;6.782;2023-08-08T02:19:16;101139.66;;;13.75;100.00
9257;BME280;4665;51.368;6.782;2023-08-08T02:21:42;101133.31;;;13.68;100.00
9257;BME280;4665;51.368;6.782;2023-08-08T02:24:07;101132.47;;;13.76;100.00
9257;BME280;4665;51.368;6.782;2023-08-08T02:26:33;101130.66;;;13.76;100.00
9257;BME280;4665;51.368;6.782;2023-08-08T02:28:59;101126.28;;;13.75;100.00
9257;BME280;4665;51.368;6.782;2023-08-08T02:31:24;101123.28;;;13.70;100.00
9257;BME280;4665;51.368;6.782;2023-08-08T02:33:50;101128.63;;;13.78;100.00
9257;BME280;4665;51.368;6.782;2023-08-08T02:36:16;101128.63;;;13.78;100.00
9257;BME280;4665;51.368;6.782;2023-08-08T02:38:42;101131.13;;;13.80;100.00
9257;BME280;4665;51.368;6.782;2023-08-08T02:41:08;101124.44;;;13.76;100.00
9257;BME280;4665;51.368;6.782;2023-08-08T02:43:33;101125.09;;;13.78;100.00
9257;BME280;4665;51.368;6.782;2023-08-08T02:45:59;101125.78;;;13.80;100.00
9257;BME280;4665;51.368;6.782;2023-08-08T02:48:24;101136.00;;;13.76;100.00
9257;BME280;4665;51.368;6.782;2023-08-08T02:50:49;101127.97;;;13.76;100.00
9257;BME280;4665;51.368;6.782;2023-08-08T02:53:15;101129.97;;;13.74;100.00
9257;BME280;4665;51.368;6.782;2023-08-08T02:55:40;101123.75;;;13.74;100.00
9257;BME280;4665;51.368;6.782;2023-08-08T02:58:06;101121.44;;;13.79;100.00
9257;BME280;4665;51.368;6.782;2023-08-08T03:00:31;101111.06;;;13.76;100.00
9257;BME280;4665;51.368;6.782;2023-08-08T03:02:57;101127.63;;;13.79;100.00
9257;BME280;4665;51.368;6.782;2023-08-08T03:05:22;101127.28;;;13.82;100.00
9257;BME280;4665;51.368;6.782;2023-08-08T03:07:48;101123.94;;;13.72;100.00
9257;BME280;4665;51.368;6.782;2023-08-08T03:10:14;101117.25;;;13.68;100.00
9257;BME280;4665;51.368;6.782;2023-08-08T03:12:39;101127.31;;;13.74;100.00
9257;BME280;4665;51.368;6.782;2023-08-08T03:15:07;101119.59;;;13.71;100.00
9257;BME280;4665;51.368;6.782;2023-08-08T03:17:33;101121.75;;;13.76;100.00
9257;BME280;4665;51.368;6.782;2023-08-08T03:20:00;101124.63;;;13.74;100.00
9257;BME280;4665;51.368;6.782;2023-08-08T03:22:25;101134.66;;;13.72;100.00
9257;BME280;4665;51.368;6.782;2023-08-08T03:24:51;101135.84;;;13.70;100.00
9257;BME280;4665;51.368;6.782;2023-08-08T03:27:16;101127.63;;;13.71;100.00
9257;BME280;4665;51.368;6.782;2023-08-08T03:29:41;101115.09;;;13.72;100.00
9257;BME280;4665;51.368;6.782;2023-08-08T03:32:07;101127.28;;;13.66;100.00
9257;BME280;4665;51.368;6.782;2023-08-08T03:34:32;101127.59;;;13.55;100.00
9257;BME280;4665;51.368;6.782;2023-08-08T03:36:59;101124.63;;;13.58;100.00
9257;BME280;4665;51.368;6.782;2023-08-08T03:39:25;101134.28;;;13.51;100.00
9257;BME280;4665;51.368;6.782;2023-08-08T03:41:50;101136.47;;;13.55;100.00
9257;BME280;4665;51.368;6.782;2023-08-08T03:44:16;101130.78;;;13.50;100.00
9257;BME280;4665;51.368;6.782;2023-08-08T03:46:41;101126.78;;;13.46;100.00
9257;BME280;4665;51.368;6.782;2023-08-08T03:49:14;101117.22;;;13.35;100.00
9257;BME280;4665;51.368;6.782;2023-08-08T03:52:17;101113.16;;;13.23;100.00
9257;BME280;4665;51.368;6.782;2023-08-08T03:55:09;101119.72;;;13.29;100.00
9257;BME280;4665;51.368;6.782;2023-08-08T03:57:39;101124.41;;;13.35;100.00
9257;BME280;4665;51.368;6.782;2023-08-08T04:03:01;101099.09;;;13.21;100.00
9257;BME280;4665;51.368;6.782;2023-08-08T04:05:35;101100.44;;;13.17;100.00
9257;BME280;4665;51.368;6.782;2023-08-08T04:08:20;101106.59;;;13.17;100.00
9257;BME280;4665;51.368;6.782;2023-08-08T04:10:59;101098.44;;;13.19;100.00
9257;BME280;4665;51.368;6.782;2023-08-08T04:13:48;101105.97;;;13.23;100.00
9257;BME280;4665;51.368;6.782;2023-08-08T04:16:28;101099.97;;;13.30;100.00
9257;BME280;4665;51.368;6.782;2023-08-08T04:19:24;101113.38;;;13.38;100.00
9257;BME280;4665;51.368;6.782;2023-08-08T04:22:04;101118.03;;;13.36;100.00
9257;BME280;4665;51.368;6.782;2023-08-08T04:24:49;101107.19;;;13.37;100.00
9257;BME280;4665;51.368;6.782;2023-08-08T04:27:40;101094.63;;;13.30;100.00
9257;BME280;4665;51.368;6.782;2023-08-08T04:30:22;101100.16;;;13.36;100.00
9257;BME280;4665;51.368;6.782;2023-08-08T04:33:48;101101.09;;;13.27;100.00
9257;BME280;4665;51.368;6.782;2023-08-08T04:42:59;101096.16;;;13.32;100.00
9257;BME280;4665;51.368;6.782;2023-08-08T04:45:40;101104.81;;;13.34;100.00
9257;BME280;4665;51.368;6.782;2023-08-08T04:48:14;101108.16;;;13.36;100.00
9257;BME280;4665;51.368;6.782;2023-08-08T04:51:03;101092.47;;;13.33;100.00
9257;BME280;4665;51.368;6.782;2023-08-08T04:54:08;101121.91;;;13.50;100.00
9257;BME280;4665;51.368;6.782;2023-08-08T04:56:36;101097.50;;;13.44;100.00
9257;BME280;4665;51.368;6.782;2023-08-08T04:59:02;101096.81;;;13.51;100.00
9257;BME280;4665;51.368;6.782;2023-08-08T05:01:27;101096.50;;;13.54;100.00
9257;BME280;4665;51.368;6.782;2023-08-08T05:03:53;101093.81;;;13.45;100.00
9257;BME280;4665;51.368;6.782;2023-08-08T05:06:18;101108.38;;;13.51;100.00
9257;BME280;4665;51.368;6.782;2023-08-08T05:08:44;101103.19;;;13.50;100.00
9257;BME280;4665;51.368;6.782;2023-08-08T05:11:09;101114.91;;;13.49;100.00
9257;BME280;4665;51.368;6.782;2023-08-08T05:13:35;101103.19;;;13.41;100.00
9257;BME280;4665;51.368;6.782;2023-08-08T05:16:00;101106.84;;;13.40;100.00
9257;BME280;4665;51.368;6.782;2023-08-08T05:18:26;101111.56;;;13.46;100.00
9257;BME280;4665;51.368;6.782;2023-08-08T05:20:51;101105.38;;;13.46;100.00
9257;BME280;4665;51.368;6.782;2023-08-08T05:23:17;101105.03;;;13.49;100.00
9257;BME280;4665;51.368;6.782;2023-08-08T05:25:42;101100.84;;;13.46;100.00
9257;BME280;4665;51.368;6.782;2023-08-08T05:28:07;101112.38;;;13.47;100.00
9257;BME280;4665;51.368;6.782;2023-08-08T05:30:33;101109.56;;;13.49;100.00
9257;BME280;4665;51.368;6.782;2023-08-08T05:32:58;101113.72;;;13.51;100.00
9257;BME280;4665;51.368;6.782;2023-08-08T05:35:24;101123.41;;;13.52;100.00
9257;BME280;4665;51.368;6.782;2023-08-08T05:37:49;101115.06;;;13.55;100.00
9257;BME280;4665;51.368;6.782;2023-08-08T05:40:15;101116.91;;;13.55;100.00
9257;BME280;4665;51.368;6.782;2023-08-08T05:42:40;101113.38;;;13.54;100.00
9257;BME280;4665;51.368;6.782;2023-08-08T05:45:06;101117.56;;;13.57;100.00
9257;BME280;4665;51.368;6.782;2023-08-08T05:47:32;101117.91;;;13.62;100.00
9257;BME280;4665;51.368;6.782;2023-08-08T05:49:58;101114.75;;;13.58;100.00
9257;BME280;4665;51.368;6.782;2023-08-08T05:52:23;101114.91;;;13.65;100.00
9257;BME280;4665;51.368;6.782;2023-08-08T05:54:49;101112.91;;;13.67;100.00
9257;BME280;4665;51.368;6.782;2023-08-08T05:57:14;101124.94;;;13.71;100.00
9257;BME280;4665;51.368;6.782;2023-08-08T05:59:40;101120.75;;;13.68;100.00
9257;BME280;4665;51.368;6.782;2023-08-08T06:02:06;101120.59;;;13.70;100.00
9257;BME280;4665;51.368;6.782;2023-08-08T06:04:31;101111.06;;;13.67;100.00
9257;BME280;4665;51.368;6.782;2023-08-08T06:06:57;101115.56;;;13.75;100.00
9257;BME280;4665;51.368;6.782;2023-08-08T06:09:22;101132.66;;;13.82;100.00
9257;BME280;4665;51.368;6.782;2023-08-08T06:11:48;101127.63;;;13.79;100.00
9257;BME280;4665;51.368;6.782;2023-08-08T06:14:13;101128.47;;;13.80;100.00
9257;BME280;4665;51.368;6.782;2023-08-08T06:16:39;101131.66;;;13.83;100.00
9257;BME280;4665;51.368;6.782;2023-08-08T06:19:04;101142.03;;;13.86;100.00
9257;BME280;4665;51.368;6.782;2023-08-08T06:21:30;101130.28;;;13.87;100.00
9257;BME280;4665;51.368;6.782;2023-08-08T06:23:55;101139.19;;;13.88;100.00
9257;BME280;4665;51.368;6.782;2023-08-08T06:26:22;101142.19;;;13.85;100.00
9257;BME280;4665;51.368;6.782;2023-08-08T06:28:47;101143.69;;;13.87;100.00
9257;BME280;4665;51.368;6.782;2023-08-08T06:31:14;101146.53;;;13.94;100.00
9257;BME280;4665;51.368;6.782;2023-08-08T06:33:40;101144.19;;;13.99;100.00
9257;BME280;4665;51.368;6.782;2023-08-08T06:36:05;101149.38;;;14.01;100.00
9257;BME280;4665;51.368;6.782;2023-08-08T06:38:31;101145.03;;;14.00;100.00
9257;BME280;4665;51.368;6.782;2023-08-08T06:41:00;101144.34;;;14.06;100.00
9257;BME280;4665;51.368;6.782;2023-08-08T06:43:26;101146.38;;;14.12;100.00
9257;BME280;4665;51.368;6.782;2023-08-08T06:45:51;101145.69;;;14.18;100.00
9257;BME280;4665;51.368;6.782;2023-08-08T06:48:17;101132.13;;;14.20;100.00
9257;BME280;4665;51.368;6.782;2023-08-08T06:50:42;101143.69;;;14.20;100.00
9257;BME280;4665;51.368;6.782;2023-08-08T06:53:08;101144.34;;;14.22;100.00
9257;BME280;4665;51.368;6.782;2023-08-08T06:55:33;101142.31;;;14.24;100.00
9257;BME280;4665;51.368;6.782;2023-08-08T06:57:59;101132.94;;;14.28;100.00
9257;BME280;4665;51.368;6.782;2023-08-08T07:00:24;101133.63;;;14.30;100.00
9257;BME280;4665;51.368;6.782;2023-08-08T07:02:52;101124.91;;;14.28;100.00
9257;BME280;4665;51.368;6.782;2023-08-08T07:05:17;101134.09;;;14.42;100.00
9257;BME280;4665;51.368;6.782;2023-08-08T07:07:43;101122.53;;;14.42;100.00
9257;BME280;4665;51.368;6.782;2023-08-08T07:10:10;101127.19;;;14.48;100.00
9257;BME280;4665;51.368;6.782;2023-08-08T07:12:37;101121.19;;;14.54;100.00
9257;BME280;4665;51.368;6.782;2023-08-08T07:15:03;101129.38;;;14.61;100.00
9257;BME280;4665;51.368;6.782;2023-08-08T07:17:28;101126.03;;;14.67;100.00
9257;BME280;4665;51.368;6.782;2023-08-08T07:19:54;101122.31;;;14.76;100.00
9257;BME280;4665;51.368;6.782;2023-08-08T07:22:19;101120.22;;;14.86;100.00
9257;BME280;4665;51.368;6.782;2023-08-08T07:24:45;101120.72;;;14.90;100.00
9257;BME280;4665;51.368;6.782;2023-08-08T07:27:11;101123.34;;;14.98;100.00
9257;BME280;4665;51.368;6.782;2023-08-08T07:29:36;101116.66;;;15.02;100.00
9257;BME280;4665;51.368;6.782;2023-08-08T07:32:03;101107.25;;;14.98;100.00
9257;BME280;4665;51.368;6.782;2023-08-08T07:34:29;101117.59;;;15.09;100.00
9257;BME280;4665;51.368;6.782;2023-08-08T07:36:55;101120.75;;;15.13;100.00
9257;BME280;4665;51.368;6.782;2023-08-08T07:39:21;101111.03;;;15.12;100.00
9257;BME280;4665;51.368;6.782;2023-08-08T07:41:46;101107.47;;;15.20;100.00
9257;BME280;4665;51.368;6.782;2023-08-08T07:44:12;101100.28;;;15.20;100.00
9257;BME280;4665;51.368;6.782;2023-08-08T07:46:37;101104.59;;;15.29;100.00
9257;BME280;4665;51.368;6.782;2023-08-08T07:49:03;101111.09;;;15.35;100.00
9257;BME280;4665;51.368;6.782;2023-08-08T07:51:30;101112.69;;;15.44;100.00
9257;BME280;4665;51.368;6.782;2023-08-08T07:53:56;101112.03;;;15.42;100.00
9257;BME280;4665;51.368;6.782;2023-08-08T07:56:22;101101.84;;;15.38;100.00
9257;BME280;4665;51.368;6.782;2023-08-08T07:58:47;101103.81;;;15.44;100.00
9257;BME280;4665;51.368;6.782;2023-08-08T08:01:12;101097.06;;;15.48;100.00
9257;BME280;4665;51.368;6.782;2023-08-08T08:03:39;101102.22;;;15.57;100.00
9257;BME280;4665;51.368;6.782;2023-08-08T08:06:05;101101.47;;;15.64;100.00
9257;BME280;4665;51.368;6.782;2023-08-08T08:08:30;101102.28;;;15.72;100.00
9257;BME280;4665;51.368;6.782;2023-08-08T08:10:56;101108.41;;;15.81;100.00
9257;BME280;4665;51.368;6.782;2023-08-08T08:13:21;101104.91;;;15.81;100.00
9257;BME280;4665;51.368;6.782;2023-08-08T08:15:47;101108.72;;;15.86;100.00
9257;BME280;4665;51.368;6.782;2023-08-08T08:18:13;101100.28;;;15.89;100.00
9257;BME280;4665;51.368;6.782;2023-08-08T08:20:39;101113.69;;;15.89;100.00
9257;BME280;4665;51.368;6.782;2023-08-08T08:23:05;101108.66;;;15.94;100.00
9257;BME280;4665;51.368;6.782;2023-08-08T08:25:30;101111.06;;;16.04;100.00
9257;BME280;4665;51.368;6.782;2023-08-08T08:27:57;101112.28;;;16.16;100.00
9257;BME280;4665;51.368;6.782;2023-08-08T08:30:23;101103.75;;;16.13;100.00
9257;BME280;4665;51.368;6.782;2023-08-08T08:32:52;101113.22;;;16.24;100.00
9257;BME280;4665;51.368;6.782;2023-08-08T08:35:18;101107.88;;;16.38;100.00
9257;BME280;4665;51.368;6.782;2023-08-08T08:37:44;101099.03;;;16.45;100.00
9257;BME280;4665;51.368;6.782;2023-08-08T08:40:10;101098.84;;;16.61;100.00
9257;BME280;4665;51.368;6.782;2023-08-08T08:42:37;101093.69;;;16.59;100.00
9257;BME280;4665;51.368;6.782;2023-08-08T08:45:04;101095.25;;;16.54;100.00
9257;BME280;4665;51.368;6.782;2023-08-08T08:47:31;101092.16;;;16.57;100.00
9257;BME280;4665;51.368;6.782;2023-08-08T08:49:57;101084.88;;;16.51;100.00
9257;BME280;4665;51.368;6.782;2023-08-08T08:52:23;101082.91;;;16.45;100.00
9257;BME280;4665;51.368;6.782;2023-08-08T08:54:50;101092.28;;;16.49;100.00
9257;BME280;4665;51.368;6.782;2023-08-08T08:57:17;101090.44;;;16.49;100.00
9257;BME280;4665;51.368;6.782;2023-08-08T08:59:42;101093.94;;;16.65;100.00
9257;BME280;4665;51.368;6.782;2023-08-08T09:02:08;101095.34;;;16.60;100.00
9257;BME280;4665;51.368;6.782;2023-08-08T09:04:35;101085.78;;;16.58;100.00
9257;BME280;4665;51.368;6.782;2023-08-08T09:07:00;101094.25;;;16.55;100.00
9257;BME280;4665;51.368;6.782;2023-08-08T09:09:31;101095.72;;;16.57;100.00
9257;BME280;4665;51.368;6.782;2023-08-08T09:11:57;101083.53;;;16.61;100.00
9257;BME280;4665;51.368;6.782;2023-08-08T09:14:30;101093.13;;;16.64;100.00
9257;BME280;4665;51.368;6.782;2023-08-08T09:16:55;101094.47;;;16.75;100.00
9257;BME280;4665;51.368;6.782;2023-08-08T09:19:23;101085.88;;;16.79;100.00
9257;BME280;4665;51.368;6.782;2023-08-08T09:21:49;101090.91;;;16.82;100.00
9257;BME280;4665;51.368;6.782;2023-08-08T09:24:15;101076.03;;;16.87;100.00
9257;BME280;4665;51.368;6.782;2023-08-08T09:26:43;101071.03;;;16.83;100.00
9257;BME280;4665;51.368;6.782;2023-08-08T09:29:13;101061.94;;;16.85;100.00
9257;BME280;4665;51.368;6.782;2023-08-08T09:31:40;101075.38;;;16.99;100.00
9257;BME280;4665;51.368;6.782;2023-08-08T09:34:06;101078.41;;;16.96;100.00
9257;BME280;4665;51.368;6.782;2023-08-08T09:36:36;101088.63;;;17.01;100.00
9257;BME280;4665;51.368;6.782;2023-08-08T09:39:02;101085.41;;;16.91;100.00
9257;BME280;4665;51.368;6.782;2023-08-08T09:41:34;101093.78;;;16.81;100.00
9257;BME280;4665;51.368;6.782;2023-08-08T09:44:00;101085.53;;;16.82;100.00
9257;BME280;4665;51.368;6.782;2023-08-08T09:46:29;101089.88;;;16.83;100.00
9257;BME280;4665;51.368;6.782;2023-08-08T09:48:55;101085.13;;;16.86;100.00
9257;BME280;4665;51.368;6.782;2023-08-08T09:51:21;101091.81;;;16.90;100.00
9257;BME280;4665;51.368;6.782;2023-08-08T09:53:46;101094.22;;;16.85;100.00
9257;BME280;4665;51.368;6.782;2023-08-08T09:56:14;101087.19;;;16.83;100.00
9257;BME280;4665;51.368;6.782;2023-08-08T09:58:41;101093.59;;;16.82;100.00
9257;BME280;4665;51.368;6.782;2023-08-08T10:01:10;101086.25;;;16.76;100.00
9257;BME280;4665;51.368;6.782;2023-08-08T10:03:38;101082.19;;;16.80;100.00
9257;BME280;4665;51.368;6.782;2023-08-08T10:06:03;101090.53;;;16.86;100.00
9257;BME280;4665;51.368;6.782;2023-08-08T10:08:30;101088.47;;;16.88;100.00
9257;BME280;4665;51.368;6.782;2023-08-08T10:10:58;101084.38;;;16.92;100.00
9257;BME280;4665;51.368;6.782;2023-08-08T10:13:25;101091.78;;;17.04;100.00
9257;BME280;4665;51.368;6.782;2023-08-08T10:15:53;101086.28;;;17.13;100.00
9257;BME280;4665;51.368;6.782;2023-08-08T10:18:23;101072.63;;;17.14;100.00
9257;BME280;4665;51.368;6.782;2023-08-08T10:20:52;101084.69;;;17.18;100.00
9257;BME280;4665;51.368;6.782;2023-08-08T10:23:21;101084.09;;;17.23;100.00
9257;BME280;4665;51.368;6.782;2023-08-08T10:25:51;101075.66;;;17.26;100.00
9257;BME280;4665;51.368;6.782;2023-08-08T10:28:21;101077.31;;;17.27;100.00
9257;BME280;4665;51.368;6.782;2023-08-08T10:30:55;101076.94;;;17.30;100.00
9257;BME280;4665;51.368;6.782;2023-08-08T10:36:00;101086.56;;;17.18;100.00
9257;BME280;4665;51.368;6.782;2023-08-08T10:38:30;101079.69;;;17.15;100.00
9257;BME280;4665;51.368;6.782;2023-08-08T10:41:04;101081.09;;;17.11;100.00
9257;BME280;4665;51.368;6.782;2023-08-08T10:43:30;101084.59;;;17.12;100.00
9257;BME280;4665;51.368;6.782;2023-08-08T10:46:03;101094.94;;;17.08;100.00
9257;BME280;4665;51.368;6.782;2023-08-08T10:48:29;101091.38;;;17.08;100.00
9257;BME280;4665;51.368;6.782;2023-08-08T10:50:57;101094.72;;;17.10;100.00
9257;BME280;4665;51.368;6.782;2023-08-08T10:53:30;101091.22;;;17.09;100.00
9257;BME280;4665;51.368;6.782;2023-08-08T10:56:03;101088.91;;;17.06;100.00
9257;BME280;4665;51.368;6.782;2023-08-08T10:58:41;101094.22;;;16.99;100.00
9257;BME280;4665;51.368;6.782;2023-08-08T11:01:08;101097.72;;;17.00;100.00
9257;BME280;4665;51.368;6.782;2023-08-08T11:03:36;101088.63;;;17.01;100.00
9257;BME280;4665;51.368;6.782;2023-08-08T11:06:03;101102.06;;;17.01;100.00
9257;BME280;4665;51.368;6.782;2023-08-08T11:08:31;101097.91;;;16.98;100.00
9257;BME280;4665;51.368;6.782;2023-08-08T11:10:57;101102.63;;;16.96;100.00
9257;BME280;4665;51.368;6.782;2023-08-08T11:13:23;101100.59;;;16.98;100.00
9257;BME280;4665;51.368;6.782;2023-08-08T11:15:48;101092.59;;;17.05;100.00
9257;BME280;4665;51.368;6.782;2023-08-08T11:18:13;101097.88;;;17.13;100.00
9257;BME280;4665;51.368;6.782;2023-08-08T11:20:39;101101.47;;;17.20;100.00
9257;BME280;4665;51.368;6.782;2023-08-08T11:23:05;101089.56;;;17.30;100.00
9257;BME280;4665;51.368;6.782;2023-08-08T11:25:35;101085.72;;;17.39;100.00
9257;BME280;4665;51.368;6.782;2023-08-08T11:28:01;101083.69;;;17.41;100.00
9257;BME280;4665;51.368;6.782;2023-08-08T11:30:32;101078.16;;;17.49;100.00
9257;BME280;4665;51.368;6.782;2023-08-08T11:32:59;101083.03;;;17.60;100.00
9257;BME280;4665;51.368;6.782;2023-08-08T11:35:25;101080.97;;;17.62;100.00
9257;BME280;4665;51.368;6.782;2023-08-08T11:37:53;101067.00;;;17.52;100.00
9257;BME280;4665;51.368;6.782;2023-08-08T11:40:19;101072.44;;;17.59;100.00
9257;BME280;4665;51.368;6.782;2023-08-08T11:42:46;101074.06;;;17.53;100.00
9257;BME280;4665;51.368;6.782;2023-08-08T11:45:13;101061.34;;;17.47;100.00
9257;BME280;4665;51.368;6.782;2023-08-08T11:47:39;101067.53;;;17.41;100.00
9257;BME280;4665;51.368;6.782;2023-08-08T11:50:07;101063.72;;;17.35;100.00
9257;BME280;4665;51.368;6.782;2023-08-08T11:52:35;101067.53;;;17.41;100.00
9257;BME280;4665;51.368;6.782;2023-08-08T11:55:01;101071.28;;;17.46;100.00
9257;BME280;4665;51.368;6.782;2023-08-08T11:57:27;101078.41;;;17.54;100.00
9257;BME280;4665;51.368;6.782;2023-08-08T11:59:53;101065.16;;;17.53;100.00
9257;BME280;4665;51.368;6.782;2023-08-08T12:02:19;101069.44;;;17.47;100.00
9257;BME280;4665;51.368;6.782;2023-08-08T12:04:45;101054.56;;;17.51;100.00
9257;BME280;4665;51.368;6.782;2023-08-08T12:07:11;101063.69;;;17.50;100.00
9257;BME280;4665;51.368;6.782;2023-08-08T12:09:37;101057.88;;;17.53;100.00
9257;BME280;4665;51.368;6.782;2023-08-08T12:12:03;101061.63;;;17.52;100.00
9257;BME280;4665;51.368;6.782;2023-08-08T12:14:29;101069.56;;;17.60;100.00
9257;BME280;4665;51.368;6.782;2023-08-08T12:16:55;101051.53;;;17.61;100.00
9257;BME280;4665;51.368;6.782;2023-08-08T12:19:24;101069.44;;;17.69;100.00
9257;BME280;4665;51.368;6.782;2023-08-08T12:21:51;101065.28;;;17.73;100.00
9257;BME280;4665;51.368;6.782;2023-08-08T12:24:20;101057.94;;;17.81;100.00
9257;BME280;4665;51.368;6.782;2023-08-08T12:26:46;101065.94;;;17.96;100.00
9257;BME280;4665;51.368;6.782;2023-08-08T12:29:12;101050.66;;;18.03;100.00
9257;BME280;4665;51.368;6.782;2023-08-08T12:31:38;101061.75;;;18.22;100.00
9257;BME280;4665;51.368;6.782;2023-08-08T12:34:04;101061.75;;;18.22;100.00
9257;BME280;4665;51.368;6.782;2023-08-08T12:36:30;101060.94;;;18.28;100.00
9257;BME280;4665;51.368;6.782;2023-08-08T12:38:55;101060.50;;;18.18;100.00
9257;BME280;4665;51.368;6.782;2023-08-08T12:41:24;101063.25;;;17.96;100.00
9257;BME280;4665;51.368;6.782;2023-08-08T12:43:54;101067.91;;;17.81;100.00
9257;BME280;4665;51.368;6.782;2023-08-08T12:46:20;101064.63;;;17.85;100.00
9257;BME280;4665;51.368;6.782;2023-08-08T12:48:46;101062.94;;;17.84;100.00
9257;BME280;4665;51.368;6.782;2023-08-08T12:51:11;101050.69;;;17.82;100.00
9257;BME280;4665;51.368;6.782;2023-08-08T12:53:37;101063.38;;;17.88;100.00
9257;BME280;4665;51.368;6.782;2023-08-08T12:56:02;101061.53;;;17.88;100.00
9257;BME280;4665;51.368;6.782;2023-08-08T12:58:28;101059.13;;;18.00;100.00
9257;BME280;4665;51.368;6.782;2023-08-08T13:00:53;101054.53;;;18.01;100.00
9257;BME280;4665;51.368;6.782;2023-08-08T13:03:19;101053.25;;;17.90;100.00
9257;BME280;4665;51.368;6.782;2023-08-08T13:05:45;101040.94;;;17.81;100.00
9257;BME280;4665;51.368;6.782;2023-08-08T13:08:11;101045.84;;;17.77;100.00
9257;BME280;4665;51.368;6.782;2023-08-08T13:10:38;101044.59;;;17.73;100.00
9257;BME280;4665;51.368;6.782;2023-08-08T13:13:04;101043.75;;;17.73;100.00
9257;BME280;4665;51.368;6.782;2023-08-08T13:15:29;101040.56;;;17.84;100.00
9257;BME280;4665;51.368;6.782;2023-08-08T13:17:54;101031.88;;;17.88;100.00
9257;BME280;4665;51.368;6.782;2023-08-08T13:20:20;101028.59;;;17.93;100.00